createdAt,value
2019-02-26T00:02:28.906Z,55.71
2019-02-26T00:05:00.808Z,56.06
2019-02-26T00:07:32.067Z,56.56
2019-02-26T00:10:02.596Z,56.32
2019-02-26T00:12:33.337Z,56.58
2019-02-26T00:15:06.285Z,56.87
2019-02-26T00:17:38.590Z,56.60
2019-02-26T00:20:10.939Z,56.83
2019-02-26T00:22:41.183Z,57.02
2019-02-26T00:25:15.294Z,57.27
2019-02-26T00:27:43.979Z,57.06
2019-02-26T00:30:16.652Z,56.80
2019-02-26T00:32:46.733Z,57.07
2019-02-26T00:35:18.937Z,57.42
2019-02-26T00:37:49.379Z,57.09
2019-02-26T00:40:20.265Z,56.95
2019-02-26T00:42:54.374Z,56.84
2019-02-26T00:45:24.668Z,56.81
2019-02-26T00:47:52.970Z,56.94
2019-02-26T00:50:22.505Z,57.53
2019-02-26T00:52:54.420Z,57.39
2019-02-26T00:55:27.364Z,57.37
2019-02-26T00:57:56.820Z,57.31
2019-02-26T01:00:26.827Z,57.14
2019-02-26T01:02:57.120Z,57.30
2019-02-26T01:05:26.682Z,57.25
2019-02-26T01:07:56.153Z,57.45
2019-02-26T01:10:25.778Z,57.76
2019-02-26T01:12:56.559Z,57.62
2019-02-26T01:15:26.396Z,57.63
2019-02-26T01:21:31.151Z,58.14
2019-02-26T01:24:02.419Z,57.82
2019-02-26T01:26:32.677Z,57.77
2019-02-26T01:29:02.840Z,57.79
2019-02-26T01:31:33.979Z,58.01
2019-02-26T01:34:03.632Z,58.11
2019-02-26T01:36:33.272Z,58.64
2019-02-26T01:39:02.867Z,58.72
2019-02-26T01:41:32.422Z,58.98
2019-02-26T01:44:02.014Z,58.47
2019-02-26T01:46:32.271Z,58.34
2019-02-26T01:49:04.541Z,58.01
2019-02-26T01:51:34.002Z,58.21
2019-02-26T01:54:05.199Z,58.48
2019-02-26T01:56:36.499Z,59.08
2019-02-26T01:59:05.956Z,59.19
2019-02-26T02:01:56.031Z,59.34
2019-02-26T02:04:45.856Z,59.96
2019-02-26T02:07:15.394Z,60.01
2019-02-26T02:09:48.669Z,60.85
2019-02-26T02:12:16.035Z,60.85
2019-02-26T02:14:45.501Z,60.37
2019-02-26T02:17:15.123Z,60.59
2019-02-26T02:19:44.565Z,61.06
2019-02-26T02:22:16.345Z,61.37
2019-02-26T02:24:46.679Z,61.87
2019-02-26T02:27:19.561Z,61.73
2019-02-26T02:29:48.847Z,62.05
2019-02-26T02:32:20.916Z,62.78
2019-02-26T02:34:50.352Z,62.30
2019-02-26T02:37:23.912Z,62.32
2019-02-26T02:39:51.378Z,62.15
2019-02-26T02:42:22.062Z,62.63
2019-02-26T02:44:53.230Z,62.98
2019-02-26T02:47:25.134Z,62.91
2019-02-26T02:49:55.925Z,62.79
2019-02-26T02:52:27.068Z,62.73
2019-02-26T02:54:56.470Z,63.12
2019-02-26T02:57:26.951Z,63.69
2019-02-26T02:59:59.514Z,63.98
2019-02-26T03:02:28.513Z,64.13
2019-02-26T03:04:57.956Z,64.30
2019-02-26T03:07:29.445Z,64.69
2019-02-26T03:10:03.895Z,64.63
2019-02-26T03:12:33.568Z,64.58
2019-02-26T03:15:05.477Z,64.66
2019-02-26T03:17:34.360Z,64.28
2019-02-26T03:20:07.677Z,64.00
2019-02-26T03:22:41.510Z,64.06
2019-02-26T03:25:16.561Z,64.25
2019-02-26T03:27:44.815Z,64.61
2019-02-26T03:30:26.201Z,64.44
2019-02-26T03:32:55.961Z,64.48
2019-02-26T03:35:23.066Z,65.20
2019-02-26T03:37:52.407Z,65.62
2019-02-26T03:40:24.110Z,65.31
2019-02-26T03:42:53.292Z,64.73
2019-02-26T03:45:24.825Z,64.75
2019-02-26T03:47:55.383Z,64.94
2019-02-26T03:50:27.211Z,64.49
2019-02-26T03:52:56.646Z,64.97
2019-02-26T03:55:26.132Z,64.86
2019-02-26T03:57:57.143Z,65.21
2019-02-26T04:00:26.473Z,64.99
2019-02-26T04:02:56.090Z,64.50
2019-02-26T04:05:25.757Z,64.62
2019-02-26T04:07:56.841Z,65.02
2019-02-26T04:10:26.321Z,64.88
2019-02-26T04:12:58.064Z,64.83
2019-02-26T04:15:27.955Z,65.14
2019-02-26T04:17:58.188Z,65.56
2019-02-26T04:20:27.955Z,65.15
2019-02-26T04:22:57.418Z,65.52
2019-02-26T04:25:33.363Z,65.74
2019-02-26T04:28:07.990Z,65.30
2019-02-26T04:30:41.633Z,65.01
2019-02-26T04:33:15.039Z,64.92
2019-02-26T04:35:48.274Z,65.13
2019-02-26T04:38:23.350Z,65.51
2019-02-26T04:41:00.168Z,65.32
2019-02-26T04:43:33.503Z,65.22
2019-02-26T04:46:07.483Z,65.75
2019-02-26T04:48:39.207Z,66.04
2019-02-26T04:51:08.798Z,66.30
2019-02-26T04:53:38.348Z,66.03
2019-02-26T04:56:12.874Z,66.38
2019-02-26T04:58:41.931Z,66.32
2019-02-26T05:01:12.990Z,66.46
2019-02-26T05:03:42.275Z,65.85
2019-02-26T05:06:12.138Z,65.87
2019-02-26T05:08:42.874Z,65.94
2019-02-26T05:11:17.443Z,65.85
2019-02-26T05:13:43.973Z,65.40
2019-02-26T05:16:13.585Z,65.45
2019-02-26T05:18:44.462Z,65.60
2019-02-26T05:21:14.308Z,65.60
2019-02-26T05:23:43.769Z,65.26
2019-02-26T05:26:15.234Z,66.06
2019-02-26T05:28:46.918Z,65.64
2019-02-26T05:31:17.469Z,66.42
2019-02-26T05:33:49.433Z,66.39
2019-02-26T05:36:18.011Z,65.80
2019-02-26T05:38:49.377Z,66.22
2019-02-26T05:41:18.617Z,66.50
2019-02-26T05:43:52.072Z,66.82
2019-02-26T05:46:22.015Z,66.82
2019-02-26T05:48:51.253Z,66.75
2019-02-26T05:51:20.787Z,66.80
2019-02-26T05:53:50.285Z,66.78
2019-02-26T05:56:20.879Z,66.78
2019-02-26T05:58:50.879Z,67.24
2019-02-26T06:01:22.527Z,67.03
2019-02-26T06:03:52.498Z,66.39
2019-02-26T06:06:22.028Z,66.20
2019-02-26T06:08:51.579Z,67.25
2019-02-26T06:11:21.184Z,67.06
2019-02-26T06:13:50.759Z,66.95
2019-02-26T06:16:21.841Z,66.74
2019-02-26T06:18:52.601Z,66.60
2019-02-26T06:21:23.594Z,66.13
2019-02-26T06:23:55.238Z,66.00
2019-02-26T06:26:28.126Z,65.31
2019-02-26T06:28:56.026Z,65.51
2019-02-26T06:31:25.488Z,64.72
2019-02-26T06:33:55.022Z,63.74
2019-02-26T06:36:25.756Z,63.59
2019-02-26T06:38:56.449Z,62.87
2019-02-26T06:41:26.863Z,61.63
2019-02-26T06:43:56.700Z,60.55
2019-02-26T06:46:29.363Z,58.79
2019-02-26T06:48:58.956Z,56.38
2019-02-26T06:51:30.634Z,54.68
2019-02-26T06:54:01.078Z,54.45
2019-02-26T06:56:34.485Z,53.49
2019-02-26T06:59:07.004Z,50.88
2019-02-26T07:01:37.906Z,49.27
2019-02-26T07:04:12.192Z,47.51
2019-02-26T07:06:38.738Z,45.34
2019-02-26T07:09:27.527Z,44.73
2019-02-26T07:11:56.745Z,43.63
2019-02-26T07:14:27.406Z,44.95
2019-02-26T07:16:59.191Z,42.73
2019-02-26T07:19:30.735Z,45.87
2019-02-26T07:22:00.084Z,46.57
2019-02-26T07:24:29.609Z,45.78
2019-02-26T07:26:59.260Z,45.12
2019-02-26T07:29:32.820Z,43.65
2019-02-26T07:32:00.091Z,44.78
2019-02-26T07:34:30.253Z,44.16
2019-02-26T07:36:59.891Z,43.32
2019-02-26T07:39:29.736Z,41.57
2019-02-26T07:41:59.625Z,40.57
2019-02-26T07:44:29.742Z,40.70
2019-02-26T07:47:00.906Z,39.74
2019-02-26T07:49:30.700Z,39.19
2019-02-26T07:52:03.238Z,39.79
2019-02-26T07:54:31.645Z,40.92
2019-02-26T07:57:02.693Z,39.96
2019-02-26T07:59:34.428Z,42.49
2019-02-26T08:02:03.798Z,43.01
2019-02-26T08:04:36.244Z,47.33
2019-02-26T08:07:05.887Z,46.62
2019-02-26T08:09:35.127Z,45.65
2019-02-26T08:12:08.982Z,46.47
2019-02-26T08:14:38.455Z,47.15
2019-02-26T08:17:09.469Z,43.97
2019-02-26T08:19:39.888Z,46.07
2019-02-26T08:22:10.332Z,45.31
2019-02-26T08:24:39.884Z,42.63
2019-02-26T08:27:11.583Z,41.15
2019-02-26T08:29:40.872Z,42.15
2019-02-26T08:32:13.726Z,42.00
2019-02-26T08:34:41.844Z,44.46
2019-02-26T08:37:11.388Z,44.69
2019-02-26T08:39:40.980Z,46.64
2019-02-26T08:42:10.818Z,44.42
2019-02-26T08:44:40.355Z,45.49
2019-02-26T08:47:12.018Z,44.53
2019-02-26T08:49:43.473Z,43.96
2019-02-26T08:52:12.739Z,44.80
2019-02-26T08:54:42.350Z,44.37
2019-02-26T08:57:12.091Z,44.66
2019-02-26T08:59:42.267Z,44.85
2019-02-26T09:02:12.847Z,44.56
2019-02-26T09:04:43.058Z,46.58
2019-02-26T09:07:14.099Z,47.21
2019-02-26T09:09:45.928Z,46.92
2019-02-26T09:12:17.521Z,48.18
2019-02-26T09:14:48.183Z,49.90
2019-02-26T09:17:22.914Z,50.25
2019-02-26T09:19:50.890Z,50.60
2019-02-26T09:22:21.659Z,51.49
2019-02-26T09:24:54.340Z,50.40
2019-02-26T09:27:24.723Z,49.79
2019-02-26T09:29:54.772Z,50.75
2019-02-26T09:32:25.901Z,51.47
2019-02-26T09:34:57.395Z,51.46
2019-02-26T09:37:26.568Z,49.98
2019-02-26T09:39:57.379Z,49.58
2019-02-26T09:42:27.903Z,49.32
2019-02-26T09:45:00.216Z,48.60
2019-02-26T09:47:32.838Z,48.92
2019-02-26T09:50:00.839Z,48.08
2019-02-26T09:52:32.475Z,48.40
2019-02-26T09:55:21.002Z,49.08
2019-02-26T09:57:50.660Z,48.04
2019-02-26T10:00:25.319Z,47.30
2019-02-26T10:02:52.061Z,47.89
2019-02-26T10:05:21.752Z,47.96
2019-02-26T10:07:54.357Z,47.20
2019-02-26T10:10:27.531Z,47.60
2019-02-26T10:12:57.433Z,47.08
2019-02-26T10:15:26.101Z,47.25
2019-02-26T10:17:58.249Z,47.77
2019-02-26T10:20:29.691Z,46.53
2019-02-26T10:23:02.853Z,46.84
2019-02-26T10:25:34.847Z,46.18
2019-02-26T10:28:08.821Z,45.88
2019-02-26T10:30:36.944Z,45.44
2019-02-26T10:33:07.854Z,45.24
2019-02-26T10:35:39.705Z,45.25
2019-02-26T10:38:11.440Z,44.41
2019-02-26T10:40:50.641Z,44.17
2019-02-26T10:43:11.576Z,44.69
2019-02-26T10:45:44.195Z,44.50
2019-02-26T10:48:13.791Z,43.95
2019-02-26T10:50:46.930Z,43.45
2019-02-26T10:53:18.927Z,43.12
2019-02-26T10:55:46.218Z,42.83
2019-02-26T10:58:16.446Z,42.81
2019-02-26T11:00:47.093Z,43.03
2019-02-26T11:03:20.255Z,43.42
2019-02-26T11:05:52.125Z,43.53
2019-02-26T11:08:24.495Z,43.24
2019-02-26T11:11:33.346Z,42.62
2019-02-26T11:14:23.176Z,42.40
2019-02-26T11:16:52.723Z,41.74
2019-02-26T11:19:24.604Z,41.33
2019-02-26T11:21:55.999Z,41.18
2019-02-26T11:24:44.057Z,41.24
2019-02-26T11:27:13.501Z,40.83
2019-02-26T11:29:43.131Z,40.75
2019-02-26T11:32:15.043Z,40.65
2019-02-26T11:34:43.854Z,40.40
2019-02-26T11:37:13.339Z,39.98
2019-02-26T11:39:42.833Z,40.20
2019-02-26T11:42:12.399Z,40.13
2019-02-26T11:44:41.887Z,39.86
2019-02-26T11:47:13.642Z,39.86
2019-02-26T11:49:44.294Z,39.21
2019-02-26T11:52:14.263Z,39.25
2019-02-26T11:54:44.628Z,39.45
2019-02-26T11:57:17.770Z,39.36
2019-02-26T11:59:47.084Z,39.28
2019-02-26T12:02:25.242Z,39.43
2019-02-26T12:04:47.695Z,39.65
2019-02-26T12:07:17.265Z,39.55
2019-02-26T12:09:46.718Z,39.36
2019-02-26T12:12:16.262Z,38.41
2019-02-26T12:14:48.337Z,38.61
2019-02-26T12:17:17.013Z,38.32
2019-02-26T12:19:48.475Z,38.41
2019-02-26T12:22:17.995Z,37.71
2019-02-26T12:24:53.016Z,37.75
2019-02-26T12:27:20.922Z,37.17
2019-02-26T12:29:52.276Z,36.99
2019-02-26T12:32:24.876Z,37.09
2019-02-26T12:34:54.003Z,36.82
2019-02-26T12:37:23.529Z,37.00
2019-02-26T12:39:55.495Z,36.83
2019-02-26T12:42:25.185Z,36.84
2019-02-26T12:44:57.236Z,37.20
2019-02-26T12:48:06.465Z,36.89
2019-02-26T12:50:58.348Z,37.00
2019-02-26T12:53:27.684Z,36.63
2019-02-26T12:56:01.953Z,36.57
2019-02-26T12:58:29.708Z,36.50
2019-02-26T13:00:59.170Z,39.78
2019-02-26T13:03:28.684Z,38.39
2019-02-26T13:05:58.124Z,36.40
2019-02-26T13:08:28.857Z,38.72
2019-02-26T13:10:58.564Z,36.25
2019-02-26T13:13:28.176Z,36.44
2019-02-26T13:15:57.721Z,37.78
2019-02-26T13:18:27.284Z,37.42
2019-02-26T13:20:59.366Z,35.90
2019-02-26T13:23:27.929Z,36.62
2019-02-26T13:25:59.025Z,36.08
2019-02-26T13:28:29.706Z,35.62
2019-02-26T13:31:02.327Z,36.41
2019-02-26T13:33:36.957Z,36.37
2019-02-26T13:36:04.805Z,35.39
2019-02-26T13:38:40.666Z,35.41
2019-02-26T13:41:27.342Z,34.90
2019-02-26T13:43:35.794Z,35.15
2019-02-26T13:46:05.007Z,34.76
2019-02-26T13:48:34.613Z,35.07
2019-02-26T13:51:04.232Z,35.21
2019-02-26T13:53:33.711Z,35.36
2019-02-26T13:56:03.261Z,34.80
2019-02-26T13:58:32.807Z,34.47
2019-02-26T14:01:02.435Z,34.61
2019-02-26T14:03:32.137Z,34.41
2019-02-26T14:06:01.599Z,34.47
2019-02-26T14:08:31.264Z,34.85
2019-02-26T14:11:00.892Z,34.96
2019-02-26T14:13:30.552Z,34.94
2019-02-26T14:16:00.104Z,34.91
2019-02-26T14:18:29.723Z,34.78
2019-02-26T14:20:59.219Z,34.30
2019-02-26T14:23:34.745Z,34.65
2019-02-26T14:26:00.234Z,34.37
2019-02-26T14:28:29.865Z,34.10
2019-02-26T14:30:59.393Z,34.21
2019-02-26T14:33:28.858Z,34.07
2019-02-26T14:35:58.352Z,34.40
2019-02-26T14:38:27.844Z,33.86
2019-02-26T14:40:57.374Z,33.62
2019-02-26T14:43:26.956Z,33.85
2019-02-26T14:45:56.720Z,34.04
2019-02-26T14:48:26.224Z,34.20
2019-02-26T14:50:55.718Z,34.56
2019-02-26T14:53:25.212Z,34.10
2019-02-26T14:55:54.710Z,33.86
2019-02-26T14:58:24.175Z,34.01
2019-02-26T15:00:57.610Z,34.00
2019-02-26T15:03:24.884Z,33.88
2019-02-26T15:05:54.524Z,33.96
2019-02-26T15:08:24.264Z,34.21
2019-02-26T15:10:53.847Z,34.40
2019-02-26T15:13:25.603Z,33.72
2019-02-26T15:15:55.049Z,33.90
2019-02-26T15:18:24.654Z,34.06
2019-02-26T15:20:54.165Z,34.34
2019-02-26T15:23:23.633Z,34.45
2019-02-26T15:25:53.243Z,34.32
2019-02-26T15:28:24.170Z,34.31
2019-02-26T15:30:53.925Z,34.17
2019-02-26T15:33:24.004Z,34.24
2019-02-26T15:35:53.583Z,34.35
2019-02-26T15:38:23.120Z,34.67
2019-02-26T15:40:53.348Z,34.21
2019-02-26T15:43:24.524Z,34.76
2019-02-26T15:45:54.548Z,34.59
2019-02-26T15:48:24.107Z,34.96
2019-02-26T15:50:53.639Z,35.09
2019-02-26T15:53:23.779Z,35.04
2019-02-26T15:55:54.001Z,35.04
2019-02-26T15:58:23.403Z,35.01
2019-02-26T16:00:53.069Z,34.55
2019-02-26T16:03:22.505Z,34.92
2019-02-26T16:05:53.996Z,34.92
2019-02-26T16:08:23.519Z,35.10
2019-02-26T16:10:53.064Z,35.27
2019-02-26T16:13:22.630Z,35.61
2019-02-26T16:15:52.384Z,35.79
2019-02-26T16:18:22.205Z,35.94
2019-02-26T16:24:07.295Z,36.23
2019-02-26T16:26:38.431Z,36.41
2019-02-26T16:29:08.258Z,36.38
2019-02-26T16:31:58.567Z,36.42
2019-02-26T16:34:28.046Z,36.57
2019-02-26T16:36:57.846Z,36.89
2019-02-26T16:39:27.383Z,37.16
2019-02-26T16:41:57.027Z,37.34
2019-02-26T16:44:26.575Z,37.63
2019-02-26T16:47:16.925Z,37.85
2019-02-26T16:49:46.486Z,38.22
2019-02-26T16:52:15.855Z,38.32
2019-02-26T16:55:06.123Z,38.65
2019-02-26T16:57:35.655Z,39.11
2019-02-26T17:00:08.750Z,39.67
2019-02-26T17:02:38.185Z,39.83
2019-02-26T17:05:14.262Z,40.15
2019-02-26T17:07:41.599Z,40.46
2019-02-26T17:10:13.964Z,40.54
2019-02-26T17:12:45.356Z,40.52
2019-02-26T17:15:18.005Z,40.51
2019-02-26T17:17:47.024Z,40.68
2019-02-26T17:20:16.565Z,40.96
2019-02-26T17:22:46.112Z,41.20
2019-02-26T17:25:16.125Z,41.23
2019-02-26T17:27:46.424Z,41.26
2019-02-26T17:30:17.242Z,41.17
2019-02-26T17:32:46.893Z,41.17
2019-02-26T17:35:17.135Z,41.41
2019-02-26T17:37:46.769Z,41.63
2019-02-26T17:40:18.686Z,42.09
2019-02-26T17:42:48.871Z,42.28
2019-02-26T17:45:21.574Z,42.51
2019-02-26T17:47:51.092Z,43.19
2019-02-26T17:50:23.679Z,43.55
2019-02-26T17:52:53.407Z,44.35
2019-02-26T17:55:24.832Z,44.41
2019-02-26T17:57:54.404Z,44.79
2019-02-26T18:00:28.127Z,45.10
2019-02-26T18:02:57.676Z,45.08
2019-02-26T18:05:27.263Z,45.20
2019-02-26T18:07:56.818Z,45.66
2019-02-26T18:10:27.165Z,45.96
2019-02-26T18:12:56.864Z,46.22
2019-02-26T18:15:26.487Z,46.75
2019-02-26T18:17:56.128Z,46.80
2019-02-26T18:20:28.238Z,46.96
2019-02-26T18:22:59.854Z,47.17
2019-02-26T18:25:28.222Z,47.32
2019-02-26T18:27:57.848Z,47.48
2019-02-26T18:30:28.768Z,47.37
2019-02-26T18:32:59.242Z,47.87
2019-02-26T18:35:28.857Z,48.31
2019-02-26T18:37:58.340Z,48.93
2019-02-26T18:40:29.049Z,49.04
2019-02-26T18:42:58.703Z,49.36
2019-02-26T18:45:29.532Z,47.69
2019-02-26T18:47:59.246Z,48.35
2019-02-26T18:50:29.545Z,48.94
2019-02-26T18:52:59.256Z,49.07
2019-02-26T18:55:32.301Z,49.32
2019-02-26T18:58:00.048Z,49.43
2019-02-26T19:00:33.641Z,49.83
2019-02-26T19:03:03.170Z,49.82
2019-02-26T19:05:32.706Z,49.93
2019-02-26T19:08:05.600Z,50.29
2019-02-26T19:10:53.395Z,50.74
2019-02-26T19:13:43.699Z,50.78
2019-02-26T19:16:13.433Z,51.12
2019-02-26T19:18:43.119Z,51.15
2019-02-26T19:21:13.781Z,51.11
2019-02-26T19:23:43.249Z,50.53
2019-02-26T19:26:13.836Z,50.98
2019-02-26T19:28:44.058Z,51.17
2019-02-26T19:31:13.726Z,51.23
2019-02-26T19:33:43.355Z,51.33
2019-02-26T19:36:13.629Z,51.97
2019-02-26T19:38:43.327Z,52.26
2019-02-26T19:41:15.786Z,52.55
2019-02-26T19:43:45.545Z,52.38
2019-02-26T19:46:17.742Z,52.46
2019-02-26T19:48:46.352Z,52.34
2019-02-26T19:51:15.951Z,52.36
2019-02-26T19:53:45.551Z,52.28
2019-02-26T19:56:15.145Z,53.07
2019-02-26T19:58:44.948Z,52.49
2019-02-26T20:01:14.823Z,51.99
2019-02-26T20:03:44.443Z,52.78
2019-02-26T20:06:14.291Z,52.50
2019-02-26T20:08:43.883Z,52.42
2019-02-26T20:11:13.840Z,52.59
2019-02-26T20:13:43.496Z,52.61
2019-02-26T20:16:13.445Z,53.02
2019-02-26T20:18:43.082Z,53.20
2019-02-26T20:21:12.733Z,53.71
2019-02-26T20:23:42.590Z,54.10
2019-02-26T20:26:16.368Z,54.47
2019-02-26T20:28:48.229Z,54.78
2019-02-26T20:31:21.443Z,55.08
2019-02-26T20:34:11.091Z,55.58
2019-02-26T20:37:02.123Z,55.36
2019-02-26T20:39:32.449Z,55.77
2019-02-26T20:42:03.224Z,55.53
2019-02-26T20:44:32.966Z,55.81
2019-02-26T20:47:02.467Z,56.10
2019-02-26T20:49:31.946Z,55.61
2019-02-26T20:52:01.579Z,56.24
2019-02-26T20:54:32.822Z,56.52
2019-02-26T20:57:04.020Z,56.59
2019-02-26T20:59:33.699Z,56.30
2019-02-26T21:02:03.264Z,56.47
2019-02-26T21:07:49.537Z,57.04
2019-02-26T21:10:20.785Z,57.52
2019-02-26T21:12:50.573Z,57.52
2019-02-26T21:15:22.643Z,57.69
2019-02-26T21:17:52.153Z,57.56
2019-02-26T21:20:21.817Z,57.59
2019-02-26T21:22:54.622Z,57.73
2019-02-26T21:25:22.691Z,57.50
2019-02-26T21:27:52.226Z,57.71
2019-02-26T21:31:01.748Z,57.00
2019-02-26T21:33:31.380Z,57.40
2019-02-26T21:36:00.888Z,58.38
2019-02-26T21:38:30.541Z,59.45
2019-02-26T21:41:00.248Z,58.76
2019-02-26T21:43:29.855Z,58.56
2019-02-26T21:45:59.491Z,58.87
2019-02-26T21:48:28.990Z,57.09
2019-02-26T21:50:58.556Z,57.61
2019-02-26T21:53:28.087Z,57.83
2019-02-26T21:55:57.585Z,58.51
2019-02-26T21:58:27.457Z,58.51
2019-02-26T22:01:37.129Z,58.80
2019-02-26T22:04:06.794Z,58.63
2019-02-26T22:06:36.314Z,58.57
2019-02-26T22:09:06.421Z,58.55
2019-02-26T22:11:36.009Z,58.95
2019-02-26T22:14:05.537Z,58.97
2019-02-26T22:16:35.043Z,59.49
2019-02-26T22:19:04.771Z,59.21
2019-02-26T22:21:35.793Z,59.34
2019-02-26T22:24:07.091Z,59.13
2019-02-26T22:26:36.355Z,58.82
2019-02-26T22:29:07.897Z,59.28
2019-02-26T22:31:37.137Z,59.98
2019-02-26T22:34:06.551Z,59.21
2019-02-26T22:36:36.034Z,59.08
2019-02-26T22:39:06.209Z,59.48
2019-02-26T22:41:35.704Z,59.35
2019-02-26T22:44:05.263Z,59.26
2019-02-26T22:46:34.471Z,59.50
2019-02-26T22:49:04.086Z,59.18
2019-02-26T22:51:33.707Z,57.76
2019-02-26T22:54:03.183Z,58.77
2019-02-26T22:56:33.332Z,57.79
2019-02-26T22:59:02.837Z,56.80
2019-02-26T23:01:36.569Z,56.11
2019-02-26T23:04:06.480Z,56.21
2019-02-26T23:09:45.679Z,55.92
2019-02-26T23:12:15.558Z,57.08
2019-02-26T23:14:45.110Z,57.42
2019-02-26T23:17:15.018Z,57.77
2019-02-26T23:19:44.567Z,57.46
2019-02-26T23:22:14.187Z,56.53
2019-02-26T23:24:44.466Z,56.83
2019-02-26T23:27:15.183Z,56.90
2019-02-26T23:29:45.496Z,57.32
2019-02-26T23:32:15.917Z,57.17
2019-02-26T23:34:48.523Z,56.95
2019-02-26T23:37:18.054Z,57.37
2019-02-26T23:39:47.632Z,57.35
2019-02-26T23:42:17.269Z,57.37
2019-02-26T23:44:50.898Z,57.12
2019-02-26T23:47:37.527Z,57.25
2019-02-26T23:50:08.440Z,57.22
2019-02-26T23:52:38.027Z,57.39
2019-02-26T23:55:13.408Z,57.92
2019-02-26T23:57:43.513Z,58.43
